Forside
METAR-TAF:

METAR-TAF

Lufthavne :

Kulob, Tadsjikistan

Breddekreds: 37-59-18N, længdekreds: 069-48-18E, højde: 699 m

Aktuelle vejr

Denne rapport blev lavet for 26 minutter siden, kl. 23:30 UTC
Vind 12 kt fra nordnordøst
Temperatur 28°C
Fugtighed 32%
Tryk 1000 hPa
Sigt 10 km eller mere

METAR: UTDK 162330Z 02006MPS 9999 NSC 28/10 Q1000 R01/09//70 RMK QFE694/0925

Tid: 04:56 (23:56 UTC)

Vejrudsigter

Denne rapport blev lavet for 2 timer og 56 minutter siden, kl. 21:00 UTC
Foreløbig gælder fra 16 på 22 UTC til 17 på 07 UTC
Vind 10 kt fra nordnordøst
Sigt: 6000 m
Nogle få skyer i en højde af 6600 ft
Spredte skyer i en højde af 13000 ft
Midlertidig
fra 16 på 22 UTC til 17 på 07 UTC
Vind 4 kt fra varierende retninger

TAF: UTDK 162100Z 1622/1707 03005MPS 6000 FEW066 SCT130 TEMPO 1622/1707 VRB02MPS

Vejrobservationer og prognoser fra mere end 4000 lufthavne (METAR og TAF).

De gule og røde prikker repræsenterer de meteorologiske stationer.

Flyt musen over at se navnet på stationen.

Så klik over at se vejr observationer og prognoser.

At skifte det kort: Klik på de grønne knapper med et sort kors for at zoome ind; på den grønne knap med en bindestreg for at zoome ud; eller på de grønne pile for tilstødende kort.


METAR-TAF: